createdAt,value
2018-06-16T00:01:35.026Z,94.15
2018-06-16T00:04:07.049Z,94.29
2018-06-16T00:06:39.108Z,93.50
2018-06-16T00:09:11.177Z,93.61
2018-06-16T00:11:43.261Z,94.46
2018-06-16T00:14:15.347Z,94.67
2018-06-16T00:16:47.463Z,93.89
2018-06-16T00:19:19.532Z,94.09
2018-06-16T00:21:51.679Z,94.43
2018-06-16T00:24:23.719Z,94.36
2018-06-16T00:26:55.768Z,94.00
2018-06-16T00:29:27.812Z,94.33
2018-06-16T00:31:59.905Z,94.82
2018-06-16T00:34:31.986Z,94.52
2018-06-16T00:37:04.045Z,93.92
2018-06-16T00:39:36.113Z,93.80
2018-06-16T00:42:09.249Z,94.02
2018-06-16T00:44:41.328Z,93.63
2018-06-16T00:47:13.602Z,93.44
2018-06-16T00:49:45.653Z,93.93
2018-06-16T00:52:17.819Z,94.45
2018-06-16T00:54:49.904Z,95.58
2018-06-16T00:57:33.724Z,96.39
2018-06-16T01:00:05.798Z,97.42
2018-06-16T01:02:38.009Z,97.39
2018-06-16T01:05:10.290Z,98.50
2018-06-16T01:07:42.385Z,98.48
2018-06-16T01:10:14.419Z,98.37
2018-06-16T01:12:46.476Z,98.46
2018-06-16T01:15:18.543Z,98.51
2018-06-16T01:17:50.621Z,99.09
2018-06-16T01:20:22.671Z,99.37
2018-06-16T01:22:54.752Z,99.46
2018-06-16T01:25:26.887Z,99.39
2018-06-16T01:27:58.939Z,99.53
2018-06-16T01:30:31.024Z,99.66
2018-06-16T01:33:03.179Z,99.88
2018-06-16T01:35:35.279Z,99.92
2018-06-16T01:38:07.326Z,100.00
2018-06-16T01:40:39.360Z,99.45
2018-06-16T01:43:11.407Z,99.80
2018-06-16T01:45:43.459Z,99.53
2018-06-16T01:48:15.579Z,98.98
2018-06-16T01:50:47.641Z,98.72
2018-06-16T01:53:19.701Z,98.73
2018-06-16T01:55:51.783Z,98.59
2018-06-16T01:58:23.875Z,98.87
2018-06-16T02:00:55.906Z,99.26
2018-06-16T02:03:27.966Z,98.75
2018-06-16T02:06:00.029Z,99.18
2018-06-16T02:08:32.096Z,99.13
2018-06-16T02:11:04.136Z,99.60
2018-06-16T02:13:36.285Z,99.61
2018-06-16T02:16:08.326Z,99.84
2018-06-16T02:18:40.378Z,100.00
2018-06-16T02:21:12.407Z,100.00
2018-06-16T02:23:44.568Z,100.00
2018-06-16T02:26:16.583Z,100.00
2018-06-16T02:28:48.612Z,100.00
2018-06-16T02:31:20.730Z,100.00
2018-06-16T02:33:52.890Z,100.00
2018-06-16T02:36:24.966Z,100.00
2018-06-16T02:38:57.024Z,100.00
2018-06-16T02:41:29.065Z,100.00
2018-06-16T02:44:01.129Z,100.00
2018-06-16T02:46:33.296Z,100.00
2018-06-16T02:49:05.338Z,100.00
2018-06-16T02:51:37.434Z,100.00
2018-06-16T02:54:09.503Z,100.00
2018-06-16T02:56:41.572Z,100.00
2018-06-16T02:59:13.623Z,100.00
2018-06-16T03:01:45.764Z,100.00
2018-06-16T03:04:17.848Z,100.00
2018-06-16T03:06:49.882Z,100.00
2018-06-16T03:09:21.968Z,100.00
2018-06-16T03:11:54.033Z,100.00
2018-06-16T03:14:26.088Z,100.00
2018-06-16T03:16:58.147Z,100.00
2018-06-16T03:19:30.252Z,100.00
2018-06-16T03:22:02.310Z,100.00
2018-06-16T03:24:34.390Z,100.00
2018-06-16T03:27:06.461Z,100.00
2018-06-16T03:29:38.508Z,100.00
2018-06-16T03:32:10.675Z,100.00
2018-06-16T03:34:42.719Z,100.00
2018-06-16T03:37:14.828Z,100.00
2018-06-16T03:39:46.903Z,100.00
2018-06-16T03:42:19.032Z,100.00
2018-06-16T03:44:51.101Z,100.00
2018-06-16T03:47:23.164Z,100.00
2018-06-16T03:49:55.277Z,100.00
2018-06-16T03:52:27.359Z,100.00
2018-06-16T03:54:59.458Z,99.81
2018-06-16T03:57:31.563Z,99.79
2018-06-16T04:00:04.288Z,99.99
2018-06-16T04:02:36.339Z,99.42
2018-06-16T04:05:08.372Z,98.76
2018-06-16T04:07:40.410Z,97.81
2018-06-16T04:10:12.438Z,97.54
2018-06-16T04:12:44.505Z,96.56
2018-06-16T04:15:16.573Z,96.06
2018-06-16T04:17:48.626Z,94.87
2018-06-16T04:20:20.811Z,93.61
2018-06-16T04:22:52.880Z,90.48
2018-06-16T04:25:24.979Z,84.63
2018-06-16T04:27:57.032Z,80.88
2018-06-16T04:30:29.103Z,76.07
2018-06-16T04:33:01.184Z,71.48
2018-06-16T04:35:33.258Z,69.33
2018-06-16T04:38:05.305Z,65.25
2018-06-16T04:40:37.369Z,62.88
2018-06-16T04:43:09.441Z,60.81
2018-06-16T04:48:20.219Z,57.96
2018-06-16T04:50:52.264Z,55.62
2018-06-16T04:53:24.332Z,53.29
2018-06-16T04:55:56.388Z,52.96
2018-06-16T04:58:28.921Z,54.78
2018-06-16T05:01:01.029Z,51.34
2018-06-16T05:03:33.500Z,50.35
2018-06-16T05:06:05.568Z,50.67
2018-06-16T05:08:37.683Z,49.87
2018-06-16T05:11:09.757Z,49.52
2018-06-16T05:13:41.888Z,46.95
2018-06-16T05:16:14.001Z,48.06
2018-06-16T05:18:46.081Z,49.11
2018-06-16T05:21:18.187Z,47.18
2018-06-16T05:23:50.258Z,48.04
2018-06-16T05:26:22.335Z,46.24
2018-06-16T05:28:54.499Z,47.75
2018-06-16T05:31:26.611Z,45.40
2018-06-16T05:33:58.675Z,44.18
2018-06-16T05:36:30.773Z,45.36
2018-06-16T05:39:04.501Z,44.70
2018-06-16T05:41:36.631Z,44.32
2018-06-16T05:44:08.759Z,43.54
2018-06-16T05:46:40.850Z,43.03
2018-06-16T05:49:12.920Z,44.85
2018-06-16T05:51:45.026Z,45.09
2018-06-16T05:54:17.093Z,44.93
2018-06-16T05:56:49.491Z,45.09
2018-06-16T05:59:21.548Z,45.99
2018-06-16T06:01:53.642Z,44.21
2018-06-16T06:04:25.801Z,43.68
2018-06-16T06:06:57.842Z,42.33
2018-06-16T06:09:29.900Z,38.84
2018-06-16T06:12:01.946Z,38.19
2018-06-16T06:14:34.027Z,36.68
2018-06-16T06:17:06.089Z,36.68
2018-06-16T06:19:38.374Z,35.35
2018-06-16T06:22:10.454Z,36.14
2018-06-16T06:24:42.567Z,34.97
2018-06-16T06:27:14.737Z,33.28
2018-06-16T06:29:46.861Z,32.50
2018-06-16T06:32:18.963Z,33.37
2018-06-16T06:34:51.123Z,35.00
2018-06-16T06:37:23.230Z,33.97
2018-06-16T06:39:55.265Z,31.75
2018-06-16T06:42:27.468Z,31.79
2018-06-16T06:44:59.499Z,33.90
2018-06-16T06:47:31.689Z,31.23
2018-06-16T06:50:03.762Z,32.89
2018-06-16T06:52:35.883Z,33.37
2018-06-16T06:55:08.024Z,33.06
2018-06-16T06:57:40.184Z,32.10
2018-06-16T07:00:12.325Z,31.67
2018-06-16T07:02:44.407Z,31.14
2018-06-16T07:05:16.582Z,30.05
2018-06-16T07:07:48.708Z,29.62
2018-06-16T07:10:20.741Z,28.24
2018-06-16T07:12:52.787Z,28.30
2018-06-16T07:15:24.951Z,30.00
2018-06-16T07:17:57.145Z,30.73
2018-06-16T07:20:29.176Z,30.26
2018-06-16T07:23:01.409Z,30.67
2018-06-16T07:25:33.604Z,30.60
2018-06-16T07:28:05.825Z,29.80
2018-06-16T07:30:37.943Z,29.93
2018-06-16T07:33:10.020Z,28.69
2018-06-16T07:35:42.242Z,29.01
2018-06-16T07:38:14.343Z,28.96
2018-06-16T07:40:46.404Z,27.71
2018-06-16T07:43:18.565Z,27.91
2018-06-16T07:45:50.696Z,27.77
2018-06-16T07:48:22.845Z,27.87
2018-06-16T07:50:55.040Z,27.75
2018-06-16T07:53:27.128Z,26.90
2018-06-16T07:55:59.182Z,27.55
2018-06-16T07:58:31.234Z,25.56
2018-06-16T08:01:03.401Z,28.33
2018-06-16T08:03:35.514Z,28.92
2018-06-16T08:06:07.652Z,28.41
2018-06-16T08:08:39.754Z,27.44
2018-06-16T08:11:11.864Z,28.46
2018-06-16T08:13:44.451Z,27.90
2018-06-16T08:16:16.635Z,29.77
2018-06-16T08:18:48.783Z,28.76
2018-06-16T08:21:20.848Z,28.63
2018-06-16T08:23:53.001Z,28.97
2018-06-16T08:26:25.134Z,28.37
2018-06-16T08:28:57.308Z,27.93
2018-06-16T08:31:29.371Z,27.07
2018-06-16T08:34:01.464Z,28.39
2018-06-16T08:36:33.640Z,28.89
2018-06-16T08:39:07.545Z,28.80
2018-06-16T08:41:40.033Z,26.36
2018-06-16T08:44:12.225Z,27.19
2018-06-16T08:46:44.307Z,27.06
2018-06-16T08:49:16.356Z,26.78
2018-06-16T08:51:48.459Z,27.27
2018-06-16T08:54:20.525Z,27.48
2018-06-16T08:56:52.646Z,26.83
2018-06-16T08:59:24.747Z,27.45
2018-06-16T09:01:57.640Z,26.33
2018-06-16T09:04:29.787Z,25.66
2018-06-16T09:07:01.867Z,26.54
2018-06-16T09:09:33.958Z,27.19
2018-06-16T09:12:06.071Z,24.98
2018-06-16T09:14:38.171Z,27.29
2018-06-16T09:17:10.243Z,26.81
2018-06-16T09:19:42.297Z,26.03
2018-06-16T09:22:14.388Z,26.10
2018-06-16T09:24:46.471Z,26.64
2018-06-16T09:27:18.538Z,25.32
2018-06-16T09:29:50.635Z,25.73
2018-06-16T09:32:22.712Z,25.69
2018-06-16T09:34:54.783Z,26.04
2018-06-16T09:37:26.885Z,24.94
2018-06-16T09:39:58.966Z,28.49
2018-06-16T09:42:31.128Z,29.14
2018-06-16T09:45:03.200Z,27.39
2018-06-16T09:47:35.267Z,26.68
2018-06-16T09:50:07.337Z,27.41
2018-06-16T09:52:39.638Z,25.76
2018-06-16T09:55:11.689Z,25.93
2018-06-16T09:57:43.760Z,28.91
2018-06-16T10:00:21.655Z,26.82
2018-06-16T10:02:53.753Z,26.27
2018-06-16T10:05:25.841Z,28.47
2018-06-16T10:07:58.609Z,27.60
2018-06-16T10:10:30.712Z,27.41
2018-06-16T10:13:02.776Z,25.61
2018-06-16T10:15:34.823Z,24.96
2018-06-16T10:18:07.328Z,25.65
2018-06-16T10:20:39.381Z,27.12
2018-06-16T10:23:11.483Z,27.22
2018-06-16T10:25:43.644Z,26.34
2018-06-16T10:28:15.719Z,26.09
2018-06-16T10:30:47.800Z,25.12
2018-06-16T10:33:19.893Z,26.80
2018-06-16T10:35:51.930Z,24.28
2018-06-16T10:38:24.011Z,25.08
2018-06-16T10:40:57.112Z,26.61
2018-06-16T10:43:29.205Z,23.55
2018-06-16T10:46:01.284Z,24.78
2018-06-16T10:48:33.366Z,25.54
2018-06-16T10:51:10.758Z,25.68
2018-06-16T10:53:42.812Z,25.63
2018-06-16T10:56:14.889Z,25.73
2018-06-16T10:58:46.971Z,25.00
2018-06-16T11:01:19.100Z,27.41
2018-06-16T11:03:51.225Z,25.78
2018-06-16T11:06:23.560Z,26.19
2018-06-16T11:08:55.736Z,26.72
2018-06-16T11:11:27.844Z,27.48
2018-06-16T11:13:59.927Z,26.29
2018-06-16T11:16:32.072Z,25.59
2018-06-16T11:19:04.711Z,25.88
2018-06-16T11:21:36.968Z,25.16
2018-06-16T11:24:09.079Z,26.58
2018-06-16T11:26:41.185Z,27.27
2018-06-16T11:29:13.256Z,27.71
2018-06-16T11:31:45.329Z,27.72
2018-06-16T11:34:17.415Z,27.34
2018-06-16T11:36:49.467Z,25.85
2018-06-16T11:39:21.575Z,24.39
2018-06-16T11:41:53.656Z,24.31
2018-06-16T11:44:25.763Z,25.06
2018-06-16T11:46:57.891Z,23.59
2018-06-16T11:49:29.952Z,23.78
2018-06-16T11:52:02.063Z,23.81
2018-06-16T11:54:34.148Z,23.07
2018-06-16T11:57:06.238Z,23.62
2018-06-16T11:59:38.332Z,25.18
2018-06-16T12:02:10.444Z,22.43
2018-06-16T12:04:42.498Z,23.23
2018-06-16T12:07:14.564Z,23.37
2018-06-16T12:09:46.679Z,22.56
2018-06-16T12:12:25.639Z,21.76
2018-06-16T12:14:57.747Z,22.63
2018-06-16T12:17:29.776Z,23.47
2018-06-16T12:20:01.874Z,22.34
2018-06-16T12:22:33.939Z,22.64
2018-06-16T12:25:06.004Z,22.23
2018-06-16T12:27:38.141Z,20.92
2018-06-16T12:30:10.346Z,20.95
2018-06-16T12:32:42.433Z,22.57
2018-06-16T12:35:14.499Z,20.66
2018-06-16T12:37:46.630Z,19.29
2018-06-16T12:40:18.749Z,19.99
2018-06-16T12:42:50.801Z,21.46
2018-06-16T12:45:22.885Z,19.77
2018-06-16T12:47:54.969Z,19.15
2018-06-16T12:50:27.047Z,19.73
2018-06-16T12:52:59.141Z,20.82
2018-06-16T12:55:31.247Z,19.21
2018-06-16T12:58:03.299Z,21.39
2018-06-16T13:00:35.409Z,20.16
2018-06-16T13:03:07.482Z,20.11
2018-06-16T13:05:39.555Z,19.91
2018-06-16T13:08:11.663Z,18.33
2018-06-16T13:10:43.739Z,18.72
2018-06-16T13:13:15.833Z,19.77
2018-06-16T13:15:47.888Z,19.75
2018-06-16T13:18:20.055Z,19.37
2018-06-16T13:20:52.089Z,17.75
2018-06-16T13:23:24.160Z,18.49
2018-06-16T13:25:56.223Z,17.86
2018-06-16T13:28:28.343Z,18.52
2018-06-16T13:31:00.474Z,20.03
2018-06-16T13:33:32.595Z,21.31
2018-06-16T13:36:04.697Z,21.03
2018-06-16T13:38:36.754Z,21.08
2018-06-16T13:41:08.879Z,19.92
2018-06-16T13:43:40.955Z,20.86
2018-06-16T13:46:13.320Z,19.99
2018-06-16T13:48:45.387Z,21.47
2018-06-16T13:51:17.485Z,20.31
2018-06-16T13:53:49.522Z,22.08
2018-06-16T13:56:21.597Z,21.46
2018-06-16T13:58:53.657Z,20.38
2018-06-16T14:01:25.717Z,21.67
2018-06-16T14:03:57.813Z,22.10
2018-06-16T14:06:29.961Z,21.03
2018-06-16T14:09:02.053Z,20.52
2018-06-16T14:11:34.147Z,19.35
2018-06-16T14:14:06.271Z,19.90
2018-06-16T14:16:38.350Z,20.49
2018-06-16T14:19:11.165Z,20.29
2018-06-16T14:21:43.468Z,20.06
2018-06-16T14:24:15.594Z,19.84
2018-06-16T14:26:47.684Z,19.03
2018-06-16T14:29:19.953Z,21.03
2018-06-16T14:31:52.079Z,21.62
2018-06-16T14:34:24.178Z,20.16
2018-06-16T14:36:56.780Z,20.89
2018-06-16T14:39:28.914Z,20.11
2018-06-16T14:42:01.175Z,19.64
2018-06-16T14:44:33.295Z,20.18
2018-06-16T14:47:05.496Z,20.79
2018-06-16T14:49:37.543Z,20.53
2018-06-16T14:52:09.658Z,21.92
2018-06-16T14:54:41.742Z,22.54
2018-06-16T14:57:14.941Z,21.02
2018-06-16T14:59:49.065Z,22.49
2018-06-16T15:02:21.156Z,22.73
2018-06-16T15:04:53.381Z,20.67
2018-06-16T15:07:25.419Z,22.52
2018-06-16T15:09:57.537Z,20.05
2018-06-16T15:12:29.791Z,21.39
2018-06-16T15:15:01.865Z,21.26
2018-06-16T15:17:33.944Z,20.29
2018-06-16T15:20:06.034Z,20.59
2018-06-16T15:22:38.148Z,22.65
2018-06-16T15:25:10.210Z,22.96
2018-06-16T15:27:42.293Z,23.93
2018-06-16T15:30:14.461Z,23.75
2018-06-16T15:32:46.519Z,24.81
2018-06-16T15:35:18.588Z,24.78
2018-06-16T15:37:50.676Z,24.06
2018-06-16T15:40:22.878Z,23.26
2018-06-16T15:42:54.955Z,23.97
2018-06-16T15:45:27.069Z,24.97
2018-06-16T15:47:59.429Z,23.48
2018-06-16T15:50:31.548Z,23.24
2018-06-16T15:53:03.780Z,22.33
2018-06-16T15:55:35.993Z,24.67
2018-06-16T15:58:08.246Z,23.02
2018-06-16T16:00:40.535Z,21.83
2018-06-16T16:03:12.852Z,22.45
2018-06-16T16:05:45.014Z,23.52
2018-06-16T16:08:17.103Z,24.19
2018-06-16T16:10:49.275Z,23.56
2018-06-16T16:13:21.522Z,22.34
2018-06-16T16:15:53.747Z,22.44
2018-06-16T16:18:26.956Z,23.26
2018-06-16T16:20:59.008Z,23.98
2018-06-16T16:23:31.258Z,24.60
2018-06-16T16:26:03.506Z,25.24
2018-06-16T16:28:35.595Z,23.18
2018-06-16T16:31:07.680Z,24.71
2018-06-16T16:33:39.782Z,23.36
2018-06-16T16:36:11.941Z,23.74
2018-06-16T16:38:44.112Z,24.70
2018-06-16T16:41:16.284Z,24.25
2018-06-16T16:43:48.438Z,25.68
2018-06-16T16:46:20.582Z,25.89
2018-06-16T16:48:52.719Z,24.59
2018-06-16T16:51:24.824Z,26.46
2018-06-16T16:53:56.965Z,26.07
2018-06-16T16:56:29.061Z,26.35
2018-06-16T16:59:01.175Z,26.36
2018-06-16T17:01:33.342Z,26.58
2018-06-16T17:04:05.430Z,27.50
2018-06-16T17:06:37.553Z,27.62
2018-06-16T17:09:10.754Z,27.83
2018-06-16T17:11:42.901Z,27.97
2018-06-16T17:14:15.017Z,30.30
2018-06-16T17:16:47.108Z,27.53
2018-06-16T17:19:19.218Z,29.42
2018-06-16T17:21:51.295Z,30.03
2018-06-16T17:24:23.548Z,28.94
2018-06-16T17:26:55.749Z,30.30
2018-06-16T17:29:27.849Z,30.64
2018-06-16T17:32:00.166Z,31.53
2018-06-16T17:34:32.280Z,31.25
2018-06-16T17:37:05.226Z,31.75
2018-06-16T17:39:37.320Z,31.80
2018-06-16T17:42:09.479Z,31.69
2018-06-16T17:44:42.857Z,30.91
2018-06-16T17:47:15.133Z,31.50
2018-06-16T17:49:47.470Z,32.02
2018-06-16T17:52:19.616Z,32.13
2018-06-16T17:54:51.748Z,32.33
2018-06-16T17:57:23.904Z,32.95
2018-06-16T17:59:57.519Z,33.88
2018-06-16T18:02:30.721Z,33.41
2018-06-16T18:05:02.869Z,33.90
2018-06-16T18:07:35.003Z,34.36
2018-06-16T18:10:07.168Z,35.78
2018-06-16T18:12:39.442Z,35.17
2018-06-16T18:15:11.733Z,36.54
2018-06-16T18:17:43.935Z,37.51
2018-06-16T18:20:18.573Z,37.90
2018-06-16T18:22:50.993Z,37.26
2018-06-16T18:25:23.334Z,38.46
2018-06-16T18:27:55.471Z,39.18
2018-06-16T18:30:27.710Z,39.02
2018-06-16T18:32:59.846Z,39.53
2018-06-16T18:35:31.990Z,40.50
2018-06-16T18:38:04.184Z,40.82
2018-06-16T18:40:36.328Z,42.25
2018-06-16T18:43:08.749Z,42.56
2018-06-16T18:45:40.845Z,42.92
2018-06-16T18:48:12.976Z,43.35
2018-06-16T18:50:45.173Z,43.84
2018-06-16T18:53:17.407Z,42.39
2018-06-16T18:55:49.534Z,43.03
2018-06-16T18:58:22.116Z,43.86
2018-06-16T19:00:54.320Z,44.54
2018-06-16T19:03:26.457Z,45.35
2018-06-16T19:06:02.421Z,44.71
2018-06-16T19:08:37.921Z,45.69
2018-06-16T19:11:13.666Z,46.06
2018-06-16T19:13:47.888Z,47.53
2018-06-16T19:16:20.061Z,46.75
2018-06-16T19:18:52.456Z,46.61
2018-06-16T19:21:24.540Z,47.92
2018-06-16T19:23:56.679Z,47.80
2018-06-16T19:26:28.842Z,48.14
2018-06-16T19:29:01.100Z,48.56
2018-06-16T19:31:33.504Z,49.56
2018-06-16T19:34:05.652Z,50.72
2018-06-16T19:36:37.789Z,53.03
2018-06-16T19:39:11.157Z,51.42
2018-06-16T19:41:45.294Z,53.71
2018-06-16T19:44:17.479Z,53.09
2018-06-16T19:46:49.581Z,51.67
2018-06-16T19:49:21.739Z,51.44
2018-06-16T19:51:54.948Z,52.25
2018-06-16T19:54:27.027Z,53.69
2018-06-16T19:56:59.467Z,54.38
2018-06-16T19:59:32.780Z,55.44
2018-06-16T20:02:05.621Z,55.79
2018-06-16T20:04:37.750Z,56.30
2018-06-16T20:07:09.869Z,57.03
2018-06-16T20:09:44.084Z,57.83
2018-06-16T20:12:16.181Z,59.07
2018-06-16T20:14:48.361Z,60.57
2018-06-16T20:17:20.542Z,61.20
2018-06-16T20:19:52.710Z,61.64
2018-06-16T20:22:25.480Z,62.53
2018-06-16T20:24:57.673Z,62.76
2018-06-16T20:27:29.804Z,63.48
2018-06-16T20:30:02.327Z,63.23
2018-06-16T20:32:34.517Z,63.66
2018-06-16T20:35:06.876Z,62.97
2018-06-16T20:37:39.026Z,63.03
2018-06-16T20:40:11.194Z,62.17
2018-06-16T20:42:43.385Z,62.02
2018-06-16T20:45:15.566Z,62.31
2018-06-16T20:47:47.807Z,62.57
2018-06-16T20:50:19.946Z,62.64
2018-06-16T20:52:52.210Z,62.65
2018-06-16T20:55:24.376Z,62.47
2018-06-16T20:57:56.563Z,63.32
2018-06-16T21:00:28.703Z,63.86
2018-06-16T21:03:00.820Z,64.83
2018-06-16T21:05:32.933Z,65.61
2018-06-16T21:08:05.109Z,65.70
2018-06-16T21:10:37.279Z,65.13
2018-06-16T21:13:10.132Z,65.57
2018-06-16T21:15:43.055Z,65.20
2018-06-16T21:18:15.245Z,65.67
2018-06-16T21:20:47.336Z,65.49
2018-06-16T21:23:19.535Z,66.16
2018-06-16T21:25:51.704Z,65.95
2018-06-16T21:28:24.028Z,65.55
2018-06-16T21:30:56.205Z,66.30
2018-06-16T21:33:28.340Z,65.23
2018-06-16T21:36:00.510Z,65.63
2018-06-16T21:38:32.681Z,65.15
2018-06-16T21:41:04.821Z,66.15
2018-06-16T21:43:36.911Z,66.15
2018-06-16T21:46:09.117Z,67.34
2018-06-16T21:48:41.251Z,67.04
2018-06-16T21:51:13.319Z,67.30
2018-06-16T21:53:45.474Z,67.42
2018-06-16T21:56:17.617Z,67.58
2018-06-16T21:58:49.859Z,68.04
2018-06-16T22:01:22.715Z,68.33
2018-06-16T22:03:54.902Z,68.25
2018-06-16T22:06:27.053Z,68.73
2018-06-16T22:08:59.844Z,68.48
2018-06-16T22:11:31.968Z,69.50
2018-06-16T22:14:04.060Z,69.11
2018-06-16T22:16:36.153Z,68.63
2018-06-16T22:19:08.268Z,69.09
2018-06-16T22:21:40.463Z,68.81
2018-06-16T22:24:12.631Z,68.84
2018-06-16T22:26:44.821Z,69.14
2018-06-16T22:29:16.896Z,70.91
2018-06-16T22:31:49.103Z,70.02
2018-06-16T22:34:21.241Z,70.67
2018-06-16T22:36:53.403Z,70.55
2018-06-16T22:39:25.503Z,70.38
2018-06-16T22:41:57.645Z,70.36
2018-06-16T22:44:29.765Z,71.04
2018-06-16T22:47:01.916Z,70.93
2018-06-16T22:49:34.042Z,70.97
2018-06-16T22:52:06.291Z,70.21
2018-06-16T22:54:38.400Z,70.37
2018-06-16T22:57:10.709Z,71.91
2018-06-16T22:59:43.914Z,72.02
2018-06-16T23:02:16.038Z,72.34
2018-06-16T23:04:48.166Z,72.47
2018-06-16T23:07:20.406Z,73.02
2018-06-16T23:09:52.517Z,73.28
2018-06-16T23:12:24.695Z,73.79
2018-06-16T23:14:56.828Z,74.34
2018-06-16T23:17:28.941Z,74.95
2018-06-16T23:20:01.008Z,75.45
2018-06-16T23:22:33.197Z,75.58
2018-06-16T23:25:05.347Z,75.67
2018-06-16T23:27:37.428Z,75.96
2018-06-16T23:30:09.515Z,76.79
2018-06-16T23:32:41.597Z,76.96
2018-06-16T23:35:13.736Z,78.22
2018-06-16T23:37:45.859Z,78.65
2018-06-16T23:40:18.017Z,79.12
2018-06-16T23:42:50.107Z,78.88
2018-06-16T23:45:22.168Z,80.26
2018-06-16T23:47:54.211Z,81.75
2018-06-16T23:50:26.351Z,81.95
2018-06-16T23:52:58.459Z,82.34
2018-06-16T23:55:30.525Z,82.09
2018-06-16T23:58:02.753Z,82.05
